sensor_id;sensor_type;location;lat;lon;timestamp;temperature;humidity
49765;DHT22;35657;51.204;-4.130;2023-03-11T00:01:15;5.40;99.90
49765;DHT22;35657;51.204;-4.130;2023-03-11T00:03:40;5.50;99.90
49765;DHT22;35657;51.204;-4.130;2023-03-11T00:06:06;5.50;99.90
49765;DHT22;35657;51.204;-4.130;2023-03-11T00:08:32;5.40;99.90
49765;DHT22;35657;51.204;-4.130;2023-03-11T00:10:59;5.40;99.90
49765;DHT22;35657;51.204;-4.130;2023-03-11T00:13:26;5.40;99.90
49765;DHT22;35657;51.204;-4.130;2023-03-11T00:15:54;5.60;99.90
49765;DHT22;35657;51.204;-4.130;2023-03-11T00:18:26;5.50;99.90
49765;DHT22;35657;51.204;-4.130;2023-03-11T00:20:53;5.50;99.90
49765;DHT22;35657;51.204;-4.130;2023-03-11T00:23:19;5.60;99.90
49765;DHT22;35657;51.204;-4.130;2023-03-11T00:25:45;5.70;99.90
49765;DHT22;35657;51.204;-4.130;2023-03-11T00:28:12;5.60;99.90
49765;DHT22;35657;51.204;-4.130;2023-03-11T00:30:40;5.60;99.90
49765;DHT22;35657;51.204;-4.130;2023-03-11T00:33:07;5.50;99.90
49765;DHT22;35657;51.204;-4.130;2023-03-11T00:35:34;5.60;99.90
49765;DHT22;35657;51.204;-4.130;2023-03-11T00:38:02;5.60;99.90
49765;DHT22;35657;51.204;-4.130;2023-03-11T00:40:30;5.70;99.90
49765;DHT22;35657;51.204;-4.130;2023-03-11T00:42:57;5.80;99.90
49765;DHT22;35657;51.204;-4.130;2023-03-11T00:45:23;5.90;99.90
49765;DHT22;35657;51.204;-4.130;2023-03-11T00:47:50;6.00;99.90
49765;DHT22;35657;51.204;-4.130;2023-03-11T00:50:19;6.00;99.90
49765;DHT22;35657;51.204;-4.130;2023-03-11T00:52:46;6.00;99.90
49765;DHT22;35657;51.204;-4.130;2023-03-11T00:55:16;6.00;99.90
49765;DHT22;35657;51.204;-4.130;2023-03-11T00:57:42;6.00;99.90
49765;DHT22;35657;51.204;-4.130;2023-03-11T01:00:12;6.00;99.90
49765;DHT22;35657;51.204;-4.130;2023-03-11T01:02:38;6.00;99.90
49765;DHT22;35657;51.204;-4.130;2023-03-11T01:05:05;6.00;99.90
49765;DHT22;35657;51.204;-4.130;2023-03-11T01:07:31;6.00;99.90
49765;DHT22;35657;51.204;-4.130;2023-03-11T01:09:58;6.10;99.90
49765;DHT22;35657;51.204;-4.130;2023-03-11T01:12:24;6.00;99.90
49765;DHT22;35657;51.204;-4.130;2023-03-11T01:14:49;6.00;99.90
49765;DHT22;35657;51.204;-4.130;2023-03-11T01:17:15;6.00;99.90
49765;DHT22;35657;51.204;-4.130;2023-03-11T01:19:41;6.10;99.90
49765;DHT22;35657;51.204;-4.130;2023-03-11T01:22:07;6.00;99.90
49765;DHT22;35657;51.204;-4.130;2023-03-11T01:24:34;5.90;99.90
49765;DHT22;35657;51.204;-4.130;2023-03-11T01:27:00;5.80;99.90
49765;DHT22;35657;51.204;-4.130;2023-03-11T01:29:25;5.80;99.90
49765;DHT22;35657;51.204;-4.130;2023-03-11T01:31:52;5.70;99.90
49765;DHT22;35657;51.204;-4.130;2023-03-11T01:34:18;5.60;99.90
49765;DHT22;35657;51.204;-4.130;2023-03-11T01:36:44;5.50;99.90
49765;DHT22;35657;51.204;-4.130;2023-03-11T01:39:09;5.40;99.90
49765;DHT22;35657;51.204;-4.130;2023-03-11T01:41:35;5.40;99.90
49765;DHT22;35657;51.204;-4.130;2023-03-11T01:44:01;5.50;99.90
49765;DHT22;35657;51.204;-4.130;2023-03-11T01:46:34;5.50;99.90
49765;DHT22;35657;51.204;-4.130;2023-03-11T01:49:03;5.50;99.90
49765;DHT22;35657;51.204;-4.130;2023-03-11T01:51:39;5.50;99.90
49765;DHT22;35657;51.204;-4.130;2023-03-11T01:54:15;5.60;99.90
49765;DHT22;35657;51.204;-4.130;2023-03-11T01:56:41;5.50;99.90
49765;DHT22;35657;51.204;-4.130;2023-03-11T01:59:08;5.50;99.90
49765;DHT22;35657;51.204;-4.130;2023-03-11T02:01:44;5.40;99.90
49765;DHT22;35657;51.204;-4.130;2023-03-11T02:04:13;5.30;99.90
49765;DHT22;35657;51.204;-4.130;2023-03-11T02:06:39;5.40;99.90
49765;DHT22;35657;51.204;-4.130;2023-03-11T02:09:05;5.30;99.90
49765;DHT22;35657;51.204;-4.130;2023-03-11T02:11:31;5.30;99.90
49765;DHT22;35657;51.204;-4.130;2023-03-11T02:14:01;5.30;99.90
49765;DHT22;35657;51.204;-4.130;2023-03-11T02:16:28;5.20;99.90
49765;DHT22;35657;51.204;-4.130;2023-03-11T02:18:53;5.20;99.90
49765;DHT22;35657;51.204;-4.130;2023-03-11T02:21:31;5.20;99.90
49765;DHT22;35657;51.204;-4.130;2023-03-11T02:29:28;5.40;99.90
49765;DHT22;35657;51.204;-4.130;2023-03-11T02:31:58;5.30;99.90
49765;DHT22;35657;51.204;-4.130;2023-03-11T02:34:30;5.30;99.90
49765;DHT22;35657;51.204;-4.130;2023-03-11T02:36:57;5.40;99.90
49765;DHT22;35657;51.204;-4.130;2023-03-11T02:39:35;5.50;99.90
49765;DHT22;35657;51.204;-4.130;2023-03-11T02:42:17;5.40;99.90
49765;DHT22;35657;51.204;-4.130;2023-03-11T02:44:45;5.50;99.90
49765;DHT22;35657;51.204;-4.130;2023-03-11T02:47:13;5.50;99.90
49765;DHT22;35657;51.204;-4.130;2023-03-11T02:49:39;5.50;99.90
49765;DHT22;35657;51.204;-4.130;2023-03-11T02:52:05;5.50;99.90
49765;DHT22;35657;51.204;-4.130;2023-03-11T02:54:31;5.50;99.90
49765;DHT22;35657;51.204;-4.130;2023-03-11T02:56:57;5.50;99.90
49765;DHT22;35657;51.204;-4.130;2023-03-11T02:59:22;5.50;99.90
49765;DHT22;35657;51.204;-4.130;2023-03-11T03:01:48;5.60;99.90
49765;DHT22;35657;51.204;-4.130;2023-03-11T03:04:14;5.60;99.90
49765;DHT22;35657;51.204;-4.130;2023-03-11T03:06:39;5.60;99.90
49765;DHT22;35657;51.204;-4.130;2023-03-11T03:09:05;5.60;99.90
49765;DHT22;35657;51.204;-4.130;2023-03-11T03:11:31;5.60;99.90
49765;DHT22;35657;51.204;-4.130;2023-03-11T03:13:57;5.70;99.90
49765;DHT22;35657;51.204;-4.130;2023-03-11T03:16:22;5.70;99.90
49765;DHT22;35657;51.204;-4.130;2023-03-11T03:18:48;5.70;99.90
49765;DHT22;35657;51.204;-4.130;2023-03-11T03:21:14;5.60;99.90
49765;DHT22;35657;51.204;-4.130;2023-03-11T03:23:40;5.60;99.90
49765;DHT22;35657;51.204;-4.130;2023-03-11T03:26:05;5.60;99.90
49765;DHT22;35657;51.204;-4.130;2023-03-11T03:28:31;5.60;99.90
49765;DHT22;35657;51.204;-4.130;2023-03-11T03:31:07;5.50;99.90
49765;DHT22;35657;51.204;-4.130;2023-03-11T03:33:33;5.60;99.90
49765;DHT22;35657;51.204;-4.130;2023-03-11T03:35:59;5.60;99.90
49765;DHT22;35657;51.204;-4.130;2023-03-11T03:38:25;5.60;99.90
49765;DHT22;35657;51.204;-4.130;2023-03-11T03:40:50;5.60;99.90
49765;DHT22;35657;51.204;-4.130;2023-03-11T03:43:16;5.50;99.90
49765;DHT22;35657;51.204;-4.130;2023-03-11T03:45:42;5.50;99.90
49765;DHT22;35657;51.204;-4.130;2023-03-11T03:48:08;5.50;99.90
49765;DHT22;35657;51.204;-4.130;2023-03-11T03:50:33;5.50;99.90
49765;DHT22;35657;51.204;-4.130;2023-03-11T03:52:59;5.50;99.90
49765;DHT22;35657;51.204;-4.130;2023-03-11T03:55:25;5.50;99.90
49765;DHT22;35657;51.204;-4.130;2023-03-11T03:57:50;5.50;99.90
49765;DHT22;35657;51.204;-4.130;2023-03-11T04:00:16;5.60;99.90
49765;DHT22;35657;51.204;-4.130;2023-03-11T04:02:42;5.50;99.90
49765;DHT22;35657;51.204;-4.130;2023-03-11T04:05:08;5.40;99.90
49765;DHT22;35657;51.204;-4.130;2023-03-11T04:07:34;5.50;99.90
49765;DHT22;35657;51.204;-4.130;2023-03-11T04:10:00;5.60;99.90
49765;DHT22;35657;51.204;-4.130;2023-03-11T04:12:26;5.50;99.90
49765;DHT22;35657;51.204;-4.130;2023-03-11T04:14:52;5.50;99.90
49765;DHT22;35657;51.204;-4.130;2023-03-11T04:17:18;5.50;99.90
49765;DHT22;35657;51.204;-4.130;2023-03-11T04:19:44;5.50;99.90
49765;DHT22;35657;51.204;-4.130;2023-03-11T04:22:09;5.50;99.90
49765;DHT22;35657;51.204;-4.130;2023-03-11T04:24:35;5.50;99.90
49765;DHT22;35657;51.204;-4.130;2023-03-11T04:27:01;5.50;99.90
49765;DHT22;35657;51.204;-4.130;2023-03-11T04:29:27;5.50;99.90
49765;DHT22;35657;51.204;-4.130;2023-03-11T04:31:52;5.50;99.90
49765;DHT22;35657;51.204;-4.130;2023-03-11T04:34:18;5.50;99.90
49765;DHT22;35657;51.204;-4.130;2023-03-11T04:36:44;5.60;99.90
49765;DHT22;35657;51.204;-4.130;2023-03-11T04:39:10;5.50;99.90
49765;DHT22;35657;51.204;-4.130;2023-03-11T04:41:36;5.60;99.90
49765;DHT22;35657;51.204;-4.130;2023-03-11T04:44:02;5.50;99.90
49765;DHT22;35657;51.204;-4.130;2023-03-11T04:46:27;5.60;99.90
49765;DHT22;35657;51.204;-4.130;2023-03-11T04:48:53;5.50;99.90
49765;DHT22;35657;51.204;-4.130;2023-03-11T04:51:19;5.50;99.90
49765;DHT22;35657;51.204;-4.130;2023-03-11T04:53:44;5.60;99.90
49765;DHT22;35657;51.204;-4.130;2023-03-11T04:56:10;5.60;99.90
49765;DHT22;35657;51.204;-4.130;2023-03-11T04:58:36;5.60;99.90
49765;DHT22;35657;51.204;-4.130;2023-03-11T05:01:01;5.50;99.90
49765;DHT22;35657;51.204;-4.130;2023-03-11T05:03:27;5.50;99.90
49765;DHT22;35657;51.204;-4.130;2023-03-11T05:05:53;5.50;99.90
49765;DHT22;35657;51.204;-4.130;2023-03-11T05:08:22;5.50;99.90
49765;DHT22;35657;51.204;-4.130;2023-03-11T05:10:49;5.50;99.90
49765;DHT22;35657;51.204;-4.130;2023-03-11T05:13:15;5.60;99.90
49765;DHT22;35657;51.204;-4.130;2023-03-11T05:15:41;5.60;99.90
49765;DHT22;35657;51.204;-4.130;2023-03-11T05:18:07;5.60;99.90
49765;DHT22;35657;51.204;-4.130;2023-03-11T05:20:32;5.60;99.90
49765;DHT22;35657;51.204;-4.130;2023-03-11T05:22:58;5.50;99.90
49765;DHT22;35657;51.204;-4.130;2023-03-11T05:25:24;5.60;99.90
49765;DHT22;35657;51.204;-4.130;2023-03-11T05:27:50;5.60;99.90
49765;DHT22;35657;51.204;-4.130;2023-03-11T05:30:16;5.50;99.90
49765;DHT22;35657;51.204;-4.130;2023-03-11T05:32:42;5.50;99.90
49765;DHT22;35657;51.204;-4.130;2023-03-11T05:35:08;5.60;99.90
49765;DHT22;35657;51.204;-4.130;2023-03-11T05:37:34;5.60;99.90
49765;DHT22;35657;51.204;-4.130;2023-03-11T05:40:00;5.60;99.90
49765;DHT22;35657;51.204;-4.130;2023-03-11T05:42:26;5.60;99.90
49765;DHT22;35657;51.204;-4.130;2023-03-11T05:44:51;5.60;99.90
49765;DHT22;35657;51.204;-4.130;2023-03-11T05:47:17;5.70;99.90
49765;DHT22;35657;51.204;-4.130;2023-03-11T05:49:45;5.70;99.90
49765;DHT22;35657;51.204;-4.130;2023-03-11T05:52:11;5.60;99.90
49765;DHT22;35657;51.204;-4.130;2023-03-11T05:54:36;5.60;99.90
49765;DHT22;35657;51.204;-4.130;2023-03-11T05:57:02;5.60;99.90
49765;DHT22;35657;51.204;-4.130;2023-03-11T05:59:28;5.60;99.90
49765;DHT22;35657;51.204;-4.130;2023-03-11T06:01:53;5.60;99.90
49765;DHT22;35657;51.204;-4.130;2023-03-11T06:04:19;5.50;99.90
49765;DHT22;35657;51.204;-4.130;2023-03-11T06:06:45;5.60;99.90
49765;DHT22;35657;51.204;-4.130;2023-03-11T06:09:12;5.50;99.90
49765;DHT22;35657;51.204;-4.130;2023-03-11T06:11:38;5.50;99.90
49765;DHT22;35657;51.204;-4.130;2023-03-11T06:14:04;5.60;99.90
49765;DHT22;35657;51.204;-4.130;2023-03-11T06:16:30;5.50;99.90
49765;DHT22;35657;51.204;-4.130;2023-03-11T06:18:56;5.50;99.90
49765;DHT22;35657;51.204;-4.130;2023-03-11T06:21:23;5.50;99.90
49765;DHT22;35657;51.204;-4.130;2023-03-11T06:23:51;5.60;99.90
49765;DHT22;35657;51.204;-4.130;2023-03-11T06:26:19;5.50;99.90
49765;DHT22;35657;51.204;-4.130;2023-03-11T06:28:46;5.60;99.90
49765;DHT22;35657;51.204;-4.130;2023-03-11T06:31:20;5.60;99.90
49765;DHT22;35657;51.204;-4.130;2023-03-11T06:33:47;5.50;99.90
49765;DHT22;35657;51.204;-4.130;2023-03-11T06:36:15;5.60;99.90
49765;DHT22;35657;51.204;-4.130;2023-03-11T06:38:41;5.60;99.90
49765;DHT22;35657;51.204;-4.130;2023-03-11T06:41:08;5.60;99.90
49765;DHT22;35657;51.204;-4.130;2023-03-11T06:43:34;5.60;99.90
49765;DHT22;35657;51.204;-4.130;2023-03-11T06:46:00;5.50;99.90
49765;DHT22;35657;51.204;-4.130;2023-03-11T06:48:26;5.50;99.90
49765;DHT22;35657;51.204;-4.130;2023-03-11T06:50:57;5.50;99.90
49765;DHT22;35657;51.204;-4.130;2023-03-11T06:53:23;5.50;99.90
49765;DHT22;35657;51.204;-4.130;2023-03-11T06:56:02;5.50;99.90
49765;DHT22;35657;51.204;-4.130;2023-03-11T06:58:29;5.60;99.90
49765;DHT22;35657;51.204;-4.130;2023-03-11T07:01:15;5.60;99.90
49765;DHT22;35657;51.204;-4.130;2023-03-11T07:03:41;5.60;99.90
49765;DHT22;35657;51.204;-4.130;2023-03-11T07:06:13;5.60;99.90
49765;DHT22;35657;51.204;-4.130;2023-03-11T07:08:39;5.60;99.90
49765;DHT22;35657;51.204;-4.130;2023-03-11T07:13:33;5.60;99.90
49765;DHT22;35657;51.204;-4.130;2023-03-11T07:16:00;5.60;99.90
49765;DHT22;35657;51.204;-4.130;2023-03-11T07:18:27;5.60;99.90
49765;DHT22;35657;51.204;-4.130;2023-03-11T07:20:52;5.60;99.90
49765;DHT22;35657;51.204;-4.130;2023-03-11T07:23:18;5.60;99.90
49765;DHT22;35657;51.204;-4.130;2023-03-11T07:25:47;5.50;99.90
49765;DHT22;35657;51.204;-4.130;2023-03-11T07:28:13;5.60;99.90
49765;DHT22;35657;51.204;-4.130;2023-03-11T07:30:39;5.60;99.90
49765;DHT22;35657;51.204;-4.130;2023-03-11T07:33:05;5.60;99.90
49765;DHT22;35657;51.204;-4.130;2023-03-11T07:35:31;5.60;99.90
49765;DHT22;35657;51.204;-4.130;2023-03-11T07:37:56;5.60;99.90
49765;DHT22;35657;51.204;-4.130;2023-03-11T07:40:22;5.60;99.90
49765;DHT22;35657;51.204;-4.130;2023-03-11T07:42:48;5.60;99.90
49765;DHT22;35657;51.204;-4.130;2023-03-11T08:02:42;5.90;99.90
49765;DHT22;35657;51.204;-4.130;2023-03-11T08:05:09;5.90;99.90
49765;DHT22;35657;51.204;-4.130;2023-03-11T08:07:34;5.90;99.90
49765;DHT22;35657;51.204;-4.130;2023-03-11T08:10:00;5.90;99.90
49765;DHT22;35657;51.204;-4.130;2023-03-11T08:12:26;5.90;99.90
49765;DHT22;35657;51.204;-4.130;2023-03-11T08:14:51;6.00;99.90
49765;DHT22;35657;51.204;-4.130;2023-03-11T08:17:17;6.00;99.90
49765;DHT22;35657;51.204;-4.130;2023-03-11T08:19:43;6.00;99.90
49765;DHT22;35657;51.204;-4.130;2023-03-11T08:22:08;6.00;99.90
49765;DHT22;35657;51.204;-4.130;2023-03-11T08:24:34;6.00;99.90
49765;DHT22;35657;51.204;-4.130;2023-03-11T08:27:00;6.00;99.90
49765;DHT22;35657;51.204;-4.130;2023-03-11T08:29:26;6.00;99.90
49765;DHT22;35657;51.204;-4.130;2023-03-11T08:31:51;6.00;99.90
49765;DHT22;35657;51.204;-4.130;2023-03-11T08:34:17;6.00;99.90
49765;DHT22;35657;51.204;-4.130;2023-03-11T08:36:45;6.10;99.90
49765;DHT22;35657;51.204;-4.130;2023-03-11T08:39:11;6.10;99.90
49765;DHT22;35657;51.204;-4.130;2023-03-11T08:41:37;6.10;99.90
49765;DHT22;35657;51.204;-4.130;2023-03-11T08:44:02;6.10;99.90
49765;DHT22;35657;51.204;-4.130;2023-03-11T08:46:38;6.30;99.90
49765;DHT22;35657;51.204;-4.130;2023-03-11T08:49:04;6.40;99.90
49765;DHT22;35657;51.204;-4.130;2023-03-11T08:51:32;6.30;99.90
49765;DHT22;35657;51.204;-4.130;2023-03-11T08:54:00;6.50;99.90
49765;DHT22;35657;51.204;-4.130;2023-03-11T08:56:26;6.40;99.90
49765;DHT22;35657;51.204;-4.130;2023-03-11T08:58:52;6.50;99.90
49765;DHT22;35657;51.204;-4.130;2023-03-11T09:01:18;6.40;99.90
49765;DHT22;35657;51.204;-4.130;2023-03-11T09:03:45;6.40;99.90
49765;DHT22;35657;51.204;-4.130;2023-03-11T09:06:12;6.40;99.90
49765;DHT22;35657;51.204;-4.130;2023-03-11T09:08:40;6.40;99.90
49765;DHT22;35657;51.204;-4.130;2023-03-11T09:11:06;6.40;99.90
49765;DHT22;35657;51.204;-4.130;2023-03-11T09:13:32;6.40;99.90
49765;DHT22;35657;51.204;-4.130;2023-03-11T09:15:58;6.40;99.90
49765;DHT22;35657;51.204;-4.130;2023-03-11T09:18:24;6.50;99.90
49765;DHT22;35657;51.204;-4.130;2023-03-11T09:20:49;6.50;99.90
49765;DHT22;35657;51.204;-4.130;2023-03-11T09:23:16;6.50;99.90
49765;DHT22;35657;51.204;-4.130;2023-03-11T09:25:43;6.50;99.90
49765;DHT22;35657;51.204;-4.130;2023-03-11T09:28:08;6.50;99.90
49765;DHT22;35657;51.204;-4.130;2023-03-11T09:30:34;6.60;99.90
49765;DHT22;35657;51.204;-4.130;2023-03-11T09:33:00;6.70;99.90
49765;DHT22;35657;51.204;-4.130;2023-03-11T09:35:26;6.80;99.90
49765;DHT22;35657;51.204;-4.130;2023-03-11T09:37:52;6.90;99.90
49765;DHT22;35657;51.204;-4.130;2023-03-11T09:40:20;6.90;99.90
49765;DHT22;35657;51.204;-4.130;2023-03-11T09:43:03;7.00;99.90
49765;DHT22;35657;51.204;-4.130;2023-03-11T09:45:37;7.00;99.90
49765;DHT22;35657;51.204;-4.130;2023-03-11T09:56:06;7.20;99.90
49765;DHT22;35657;51.204;-4.130;2023-03-11T09:58:54;7.20;99.90
49765;DHT22;35657;51.204;-4.130;2023-03-11T10:01:33;7.20;99.90
49765;DHT22;35657;51.204;-4.130;2023-03-11T10:04:22;7.20;99.90
49765;DHT22;35657;51.204;-4.130;2023-03-11T10:06:51;7.20;99.90
49765;DHT22;35657;51.204;-4.130;2023-03-11T10:28:46;7.70;99.90
49765;DHT22;35657;51.204;-4.130;2023-03-11T10:33:54;7.80;99.90
49765;DHT22;35657;51.204;-4.130;2023-03-11T10:36:23;7.80;99.90
49765;DHT22;35657;51.204;-4.130;2023-03-11T10:38:53;7.70;99.90
49765;DHT22;35657;51.204;-4.130;2023-03-11T10:41:20;7.70;99.90
49765;DHT22;35657;51.204;-4.130;2023-03-11T10:44:06;7.70;99.90
49765;DHT22;35657;51.204;-4.130;2023-03-11T10:46:35;7.90;99.90
49765;DHT22;35657;51.204;-4.130;2023-03-11T10:49:01;7.80;99.90
49765;DHT22;35657;51.204;-4.130;2023-03-11T10:51:35;7.80;99.90
49765;DHT22;35657;51.204;-4.130;2023-03-11T10:54:02;7.80;99.90
49765;DHT22;35657;51.204;-4.130;2023-03-11T10:59:00;7.80;99.90
49765;DHT22;35657;51.204;-4.130;2023-03-11T11:01:27;7.80;99.90
49765;DHT22;35657;51.204;-4.130;2023-03-11T11:03:55;7.80;99.90
49765;DHT22;35657;51.204;-4.130;2023-03-11T11:09:13;7.80;99.90
49765;DHT22;35657;51.204;-4.130;2023-03-11T11:11:42;7.80;99.90
49765;DHT22;35657;51.204;-4.130;2023-03-11T11:14:08;7.80;99.90
49765;DHT22;35657;51.204;-4.130;2023-03-11T11:16:35;7.90;99.90
49765;DHT22;35657;51.204;-4.130;2023-03-11T11:19:12;8.00;99.90
49765;DHT22;35657;51.204;-4.130;2023-03-11T11:21:41;8.10;99.90
49765;DHT22;35657;51.204;-4.130;2023-03-11T11:27:18;8.10;99.90
49765;DHT22;35657;51.204;-4.130;2023-03-11T11:29:45;8.20;99.90
49765;DHT22;35657;51.204;-4.130;2023-03-11T11:34:41;8.20;99.90
49765;DHT22;35657;51.204;-4.130;2023-03-11T11:37:11;8.20;99.90
49765;DHT22;35657;51.204;-4.130;2023-03-11T11:39:58;8.30;99.90
49765;DHT22;35657;51.204;-4.130;2023-03-11T11:42:27;8.40;99.90
49765;DHT22;35657;51.204;-4.130;2023-03-11T11:45:05;8.40;99.90
49765;DHT22;35657;51.204;-4.130;2023-03-11T11:47:35;8.40;99.90
49765;DHT22;35657;51.204;-4.130;2023-03-11T11:50:13;8.30;99.90
49765;DHT22;35657;51.204;-4.130;2023-03-11T11:52:43;8.50;99.90
49765;DHT22;35657;51.204;-4.130;2023-03-11T11:55:25;8.50;99.90
49765;DHT22;35657;51.204;-4.130;2023-03-11T11:57:52;8.50;99.90
49765;DHT22;35657;51.204;-4.130;2023-03-11T12:00:28;8.40;99.90
49765;DHT22;35657;51.204;-4.130;2023-03-11T12:06:04;8.50;99.90
49765;DHT22;35657;51.204;-4.130;2023-03-11T12:11:56;8.30;99.90
49765;DHT22;35657;51.204;-4.130;2023-03-11T12:16:55;8.20;99.90
49765;DHT22;35657;51.204;-4.130;2023-03-11T12:25:24;8.20;99.90
49765;DHT22;35657;51.204;-4.130;2023-03-11T12:28:15;8.10;99.90
49765;DHT22;35657;51.204;-4.130;2023-03-11T12:30:54;8.20;99.90
49765;DHT22;35657;51.204;-4.130;2023-03-11T12:33:31;8.30;99.90
49765;DHT22;35657;51.204;-4.130;2023-03-11T12:35:59;8.30;99.90
49765;DHT22;35657;51.204;-4.130;2023-03-11T12:38:32;8.30;99.90
49765;DHT22;35657;51.204;-4.130;2023-03-11T12:41:05;8.40;99.90
49765;DHT22;35657;51.204;-4.130;2023-03-11T12:46:03;8.50;99.90
49765;DHT22;35657;51.204;-4.130;2023-03-11T12:48:45;8.50;99.90
49765;DHT22;35657;51.204;-4.130;2023-03-11T12:53:55;8.60;99.90
49765;DHT22;35657;51.204;-4.130;2023-03-11T12:56:42;8.70;99.90
49765;DHT22;35657;51.204;-4.130;2023-03-11T13:07:53;8.80;99.90
49765;DHT22;35657;51.204;-4.130;2023-03-11T13:10:37;8.90;99.90
49765;DHT22;35657;51.204;-4.130;2023-03-11T13:18:37;8.90;99.90
49765;DHT22;35657;51.204;-4.130;2023-03-11T13:21:04;9.00;99.90
49765;DHT22;35657;51.204;-4.130;2023-03-11T13:23:49;9.00;99.90
49765;DHT22;35657;51.204;-4.130;2023-03-11T13:26:40;9.10;99.90
49765;DHT22;35657;51.204;-4.130;2023-03-11T13:32:22;9.10;99.90
49765;DHT22;35657;51.204;-4.130;2023-03-11T13:35:30;9.30;99.90
49765;DHT22;35657;51.204;-4.130;2023-03-11T13:40:43;9.40;99.90
49765;DHT22;35657;51.204;-4.130;2023-03-11T13:43:20;9.30;99.90
49765;DHT22;35657;51.204;-4.130;2023-03-11T13:46:10;9.10;99.90
49765;DHT22;35657;51.204;-4.130;2023-03-11T13:48:45;9.10;99.90
49765;DHT22;35657;51.204;-4.130;2023-03-11T13:54:04;9.00;99.90
49765;DHT22;35657;51.204;-4.130;2023-03-11T13:56:42;8.90;99.90
49765;DHT22;35657;51.204;-4.130;2023-03-11T13:59:26;8.90;99.90
49765;DHT22;35657;51.204;-4.130;2023-03-11T14:01:59;8.80;99.90
49765;DHT22;35657;51.204;-4.130;2023-03-11T14:04:49;8.80;99.90
49765;DHT22;35657;51.204;-4.130;2023-03-11T14:07:33;8.70;99.90
49765;DHT22;35657;51.204;-4.130;2023-03-11T14:12:44;8.60;99.90
49765;DHT22;35657;51.204;-4.130;2023-03-11T14:15:24;8.60;99.90
49765;DHT22;35657;51.204;-4.130;2023-03-11T14:17:52;8.60;99.90
49765;DHT22;35657;51.204;-4.130;2023-03-11T14:20:20;8.50;99.90
49765;DHT22;35657;51.204;-4.130;2023-03-11T14:22:52;8.60;99.90
49765;DHT22;35657;51.204;-4.130;2023-03-11T14:25:24;8.50;99.90
49765;DHT22;35657;51.204;-4.130;2023-03-11T14:28:17;8.60;99.90
49765;DHT22;35657;51.204;-4.130;2023-03-11T14:30:55;8.50;99.90
49765;DHT22;35657;51.204;-4.130;2023-03-11T14:33:22;8.60;99.90
49765;DHT22;35657;51.204;-4.130;2023-03-11T14:35:56;8.60;99.90
49765;DHT22;35657;51.204;-4.130;2023-03-11T14:38:25;8.60;99.90
49765;DHT22;35657;51.204;-4.130;2023-03-11T14:40:59;8.60;99.90
49765;DHT22;35657;51.204;-4.130;2023-03-11T14:43:36;8.60;99.90
49765;DHT22;35657;51.204;-4.130;2023-03-11T14:46:05;8.60;99.90
49765;DHT22;35657;51.204;-4.130;2023-03-11T14:48:39;8.60;99.90
49765;DHT22;35657;51.204;-4.130;2023-03-11T14:51:13;8.60;99.90
49765;DHT22;35657;51.204;-4.130;2023-03-11T14:54:19;8.60;99.90
49765;DHT22;35657;51.204;-4.130;2023-03-11T14:56:51;8.70;99.90
49765;DHT22;35657;51.204;-4.130;2023-03-11T14:59:25;8.70;99.90
49765;DHT22;35657;51.204;-4.130;2023-03-11T15:01:53;8.80;99.90
49765;DHT22;35657;51.204;-4.130;2023-03-11T15:06:54;8.80;99.90
49765;DHT22;35657;51.204;-4.130;2023-03-11T15:09:21;8.90;99.90
49765;DHT22;35657;51.204;-4.130;2023-03-11T15:11:52;8.90;99.90
49765;DHT22;35657;51.204;-4.130;2023-03-11T15:14:23;8.80;99.90
49765;DHT22;35657;51.204;-4.130;2023-03-11T15:16:50;8.80;99.90
49765;DHT22;35657;51.204;-4.130;2023-03-11T15:19:43;8.80;99.90
49765;DHT22;35657;51.204;-4.130;2023-03-11T15:22:39;8.70;99.90
49765;DHT22;35657;51.204;-4.130;2023-03-11T15:25:16;8.70;99.90
49765;DHT22;35657;51.204;-4.130;2023-03-11T15:27:43;8.60;99.90
49765;DHT22;35657;51.204;-4.130;2023-03-11T15:30:19;8.60;99.90
49765;DHT22;35657;51.204;-4.130;2023-03-11T15:32:46;8.60;99.90
49765;DHT22;35657;51.204;-4.130;2023-03-11T15:40:33;8.60;99.90
49765;DHT22;35657;51.204;-4.130;2023-03-11T15:43:22;8.60;99.90
49765;DHT22;35657;51.204;-4.130;2023-03-11T15:45:49;8.60;99.90
49765;DHT22;35657;51.204;-4.130;2023-03-11T15:48:17;8.60;99.90
49765;DHT22;35657;51.204;-4.130;2023-03-11T15:50:51;8.60;99.90
49765;DHT22;35657;51.204;-4.130;2023-03-11T15:53:18;8.60;99.90
49765;DHT22;35657;51.204;-4.130;2023-03-11T15:55:45;8.70;99.90
49765;DHT22;35657;51.204;-4.130;2023-03-11T15:58:14;8.70;99.90
49765;DHT22;35657;51.204;-4.130;2023-03-11T16:00:47;8.70;99.90
49765;DHT22;35657;51.204;-4.130;2023-03-11T16:03:13;8.70;99.90
49765;DHT22;35657;51.204;-4.130;2023-03-11T16:05:39;8.70;99.90
49765;DHT22;35657;51.204;-4.130;2023-03-11T16:08:05;8.60;99.90
49765;DHT22;35657;51.204;-4.130;2023-03-11T16:10:31;8.70;99.90
49765;DHT22;35657;51.204;-4.130;2023-03-11T16:12:56;8.60;99.90
49765;DHT22;35657;51.204;-4.130;2023-03-11T16:15:28;8.60;99.90
49765;DHT22;35657;51.204;-4.130;2023-03-11T16:17:57;8.60;99.90
49765;DHT22;35657;51.204;-4.130;2023-03-11T16:20:25;8.60;99.90
49765;DHT22;35657;51.204;-4.130;2023-03-11T16:22:53;8.60;99.90
49765;DHT22;35657;51.204;-4.130;2023-03-11T16:27:51;8.60;99.90
49765;DHT22;35657;51.204;-4.130;2023-03-11T16:30:17;8.70;99.90
49765;DHT22;35657;51.204;-4.130;2023-03-11T16:32:43;8.80;99.90
49765;DHT22;35657;51.204;-4.130;2023-03-11T16:35:09;8.80;99.90
49765;DHT22;35657;51.204;-4.130;2023-03-11T16:37:37;8.90;99.90
49765;DHT22;35657;51.204;-4.130;2023-03-11T16:40:04;8.90;99.90
49765;DHT22;35657;51.204;-4.130;2023-03-11T16:42:31;8.90;99.90
49765;DHT22;35657;51.204;-4.130;2023-03-11T16:44:57;9.00;99.90
49765;DHT22;35657;51.204;-4.130;2023-03-11T16:47:23;9.00;99.90
49765;DHT22;35657;51.204;-4.130;2023-03-11T16:49:48;9.00;99.90
49765;DHT22;35657;51.204;-4.130;2023-03-11T16:52:18;9.00;99.90
49765;DHT22;35657;51.204;-4.130;2023-03-11T16:54:45;8.90;99.90
49765;DHT22;35657;51.204;-4.130;2023-03-11T16:57:11;8.90;99.90
49765;DHT22;35657;51.204;-4.130;2023-03-11T16:59:37;8.90;99.90
49765;DHT22;35657;51.204;-4.130;2023-03-11T17:02:03;8.80;99.90
49765;DHT22;35657;51.204;-4.130;2023-03-11T17:04:29;8.80;99.90
49765;DHT22;35657;51.204;-4.130;2023-03-11T17:06:54;8.80;99.90
49765;DHT22;35657;51.204;-4.130;2023-03-11T17:09:20;8.80;99.90
49765;DHT22;35657;51.204;-4.130;2023-03-11T17:11:48;8.80;99.90
49765;DHT22;35657;51.204;-4.130;2023-03-11T17:14:15;8.80;99.90
49765;DHT22;35657;51.204;-4.130;2023-03-11T17:16:41;8.80;99.90
49765;DHT22;35657;51.204;-4.130;2023-03-11T17:19:07;8.80;99.90
49765;DHT22;35657;51.204;-4.130;2023-03-11T17:21:32;8.80;99.90
49765;DHT22;35657;51.204;-4.130;2023-03-11T17:23:58;8.80;99.90
49765;DHT22;35657;51.204;-4.130;2023-03-11T17:26:24;8.90;99.90
49765;DHT22;35657;51.204;-4.130;2023-03-11T17:28:55;8.90;99.90
49765;DHT22;35657;51.204;-4.130;2023-03-11T17:31:21;9.00;99.90
49765;DHT22;35657;51.204;-4.130;2023-03-11T17:33:47;9.10;99.90
49765;DHT22;35657;51.204;-4.130;2023-03-11T17:36:17;9.10;99.90
49765;DHT22;35657;51.204;-4.130;2023-03-11T17:38:44;9.10;99.90
49765;DHT22;35657;51.204;-4.130;2023-03-11T17:41:15;9.20;99.90
49765;DHT22;35657;51.204;-4.130;2023-03-11T17:43:41;9.20;99.90